Sovereign — 9HUE9 — position and weather

sailwx.info

Track history (hours):
 
Tides and Currents Weather Stations Pressure Air Temp Water Temp Dewpoint Dewpoint Depression Visibility Wind Speed Wind Dir Waves Ship Positions

Sovereign

Last reported at 2018-Aug-15 12:30 UTC. Time now 2018-Aug-15 12:37 UTC.
Position N 40°50' E 014°16'.

Length 269 m; draft 7.8 m.

Type: Passenger vessel. MMSI: 249539000.

Date/timePositionNaut miles runAvg speedWind from/ knotsBaromVisibWave heightAir tempDewpointWater temp
2018-Aug-15 12:30N 40°50' E 014°16'0 0.0
2018-Aug-15 12:00N 40°50' E 014°16'0 0.0
2018-Aug-15 11:30N 40°50' E 014°16'0 0.0
2018-Aug-15 11:00N 40°50' E 014°16'0 0.0
2018-Aug-15 10:30N 40°50' E 014°16'0 0.0
2018-Aug-15 10:00N 40°50' E 014°16'0 0.0
2018-Aug-15 09:30N 40°50' E 014°16'0 0.0
2018-Aug-15 09:00N 40°50' E 014°16'0 0.0
2018-Aug-15 08:24N 40°50' E 014°16'0 0.0
2018-Aug-15 08:00N 40°50' E 014°16'0 0.0
2018-Aug-15 07:30N 40°50' E 014°16'0 0.0
2018-Aug-15 07:00N 40°50' E 014°16'0 0.5
2018-Aug-15 06:30N 40°50' E 014°16'1 2.9
2018-Aug-15 06:00N 40°49' E 014°17'510.3
2018-Aug-15 05:31N 40°45' E 014°13'612.2
2018-Aug-15 05:00N 40°41' E 014°06'612.1
2018-Aug-15 04:31N 40°38' E 014°00'612.6
2018-Aug-15 04:00N 40°36' E 013°52'612.9
2018-Aug-15 03:31N 40°34' E 013°44'612.8
2018-Aug-15 03:00N 40°32' E 013°36'612.4
2018-Aug-15 02:30N 40°32' E 013°28'712.9
2018-Aug-15 01:59N 40°33' E 013°19'913.0
2018-Aug-15 01:16N 40°36' E 013°07'49515.3
2018-Aug-13 16:56N 41°16' E 002°14'510.7
2018-Aug-13 16:30N 41°19' E 002°10'2 4.5
2018-Aug-13 16:00N 41°22' E 002°11'0 0.0
2018-Aug-13 15:30N 41°22' E 002°11'0 0.0
2018-Aug-13 15:00N 41°22' E 002°11'0 0.0
2018-Aug-13 14:30N 41°22' E 002°11'0 0.0
2018-Aug-13 14:00N 41°22' E 002°11'0 0.0
2018-Aug-13 13:30N 41°22' E 002°11'0 0.0
2018-Aug-13 13:00N 41°22' E 002°11'0 0.0
2018-Aug-13 12:30N 41°22' E 002°11'0 0.0
2018-Aug-13 12:00N 41°22' E 002°11'0 0.0
2018-Aug-13 11:30N 41°22' E 002°11'0 0.0
2018-Aug-13 11:00N 41°22' E 002°11'0 0.0
2018-Aug-13 10:30N 41°22' E 002°11'0 0.0
2018-Aug-13 10:00N 41°22' E 002°11'0 0.0
2018-Aug-13 09:30N 41°22' E 002°11'0 0.0
2018-Aug-13 08:54N 41°22' E 002°11'0 0.0
2018-Aug-13 08:30N 41°22' E 002°11'0 0.0
2018-Aug-13 08:00N 41°22' E 002°11'0 0.0
2018-Aug-13 07:30N 41°22' E 002°11'0 0.0
2018-Aug-13 07:00N 41°22' E 002°11'0 0.0
2018-Aug-13 06:30N 41°22' E 002°11'0 0.0
2018-Aug-13 06:00N 41°22' E 002°11'0 0.4
2018-Aug-13 05:30N 41°22' E 002°11'3 5.7
2018-Aug-13 05:00N 41°19' E 002°10'4 8.7
2018-Aug-13 04:30N 41°16' E 002°15'5 9.8
2018-Aug-13 04:00N 41°16' E 002°21'13511.7
2018-Aug-12 16:26N 43°15' E 003°48'715.2
2018-Aug-12 16:00N 43°22' E 003°46'3 6.6
2018-Aug-12 15:30N 43°24' E 003°43'0 0.0
2018-Aug-12 06:33N 43°24' E 003°43'0 0.0
2018-Aug-12 06:21N 43°24' E 003°43'0 0.0
2018-Aug-12 06:00N 43°24' E 003°43'0 0.0
2018-Aug-12 05:30N 43°24' E 003°43'0 0.0
2018-Aug-12 04:57N 43°24' E 003°43'0 0.0
2018-Aug-12 04:30N 43°24' E 003°43'2 4.9
2018-Aug-12 04:00N 43°23' E 003°46'712.1
2018-Aug-12 03:25N 43°18' E 003°52'511.7
2018-Aug-12 03:00N 43°15' E 003°57'612.7
2018-Aug-12 02:30N 43°12' E 004°05'3213.9
2018-Aug-12 00:12N 43°03' E 004°47'315.4
2018-Aug-11 23:59N 43°02' E 004°52'715.1
2018-Aug-11 23:31N 43°00' E 005°01'815.0
2018-Aug-11 22:59N 42°58' E 005°11'815.1
2018-Aug-11 22:29N 42°56' E 005°21'2515.1
2018-Aug-11 20:49N 42°54' E 005°56'515.1
2018-Aug-11 20:30N 42°54' E 006°02'715.2
2018-Aug-11 20:00N 42°54' E 006°12'815.1
2018-Aug-11 19:30N 42°54' E 006°23'815.2
2018-Aug-11 19:00N 42°54' E 006°33'815.3
2018-Aug-11 18:30N 42°54' E 006°44'914.7
2018-Aug-11 17:54N 43°00' E 006°53'615.9
2018-Aug-11 17:30N 43°05' E 006°58'816.0
2018-Aug-11 17:00N 43°11' E 007°05'815.7
2018-Aug-11 16:30N 43°18' E 007°11'816.1
2018-Aug-11 16:00N 43°26' E 007°13'816.2
2018-Aug-11 15:30N 43°34' E 007°16'714.2
2018-Aug-11 15:00N 43°41' E 007°19'1 1.6
2018-Aug-11 14:26N 43°41' E 007°19'0 0.0
2018-Aug-11 13:56N 43°41' E 007°19'0 0.0
2018-Aug-11 13:26N 43°41' E 007°19'0 0.0
2018-Aug-11 12:56N 43°41' E 007°19'0 0.0
2018-Aug-11 11:26N 43°41' E 007°19'0 0.0
2018-Aug-11 05:33N 43°41' E 007°19'0 2.7
2018-Aug-11 05:30N 43°41' E 007°19'3 6.2
2018-Aug-11 04:57N 43°40' E 007°23'3510.3
2018-Aug-11 01:37N 43°38' E 008°11'1 9.9
2018-Aug-11 01:30N 43°38' E 008°12'6 9.8
2018-Aug-11 00:55N 43°38' E 008°20'5 9.9
2018-Aug-11 00:24N 43°37' E 008°27'512.3
2018-Aug-11 00:00N 43°37' E 008°34'612.8
2018-Aug-10 23:30N 43°37' E 008°43'612.6
2018-Aug-10 23:00N 43°36' E 008°52'612.7
2018-Aug-10 22:30N 43°36' E 009°00'612.8
2018-Aug-10 22:00N 43°36' E 009°09'613.0
2018-Aug-10 21:30N 43°36' E 009°18'612.9
2018-Aug-10 21:00N 43°35' E 009°27'612.8
2018-Aug-10 20:30N 43°35' E 009°36'612.6
2018-Aug-10 20:00N 43°34' E 009°44'612.4
2018-Aug-10 19:30N 43°32' E 009°53'612.6
2018-Aug-10 19:00N 43°31' E 010°01'612.3
2018-Aug-10 18:30N 43°31' E 010°10'510.7
2018-Aug-10 18:00N 43°32' E 010°17'1 2.6
2018-Aug-10 17:28N 43°33' E 010°18'0 0.0
2018-Aug-10 16:58N 43°33' E 010°18'0 0.0
2018-Aug-10 16:25N 43°33' E 010°18'0 0.0
2018-Aug-10 15:58N 43°33' E 010°18'0 0.0
2018-Aug-10 15:28N 43°33' E 010°18'0 0.0
2018-Aug-10 14:58N 43°33' E 010°18'0 0.0
2018-Aug-10 14:28N 43°33' E 010°18'0 0.0
2018-Aug-10 13:58N 43°33' E 010°18'0 0.0
2018-Aug-10 13:25N 43°33' E 010°18'0 0.0
2018-Aug-10 12:58N 43°33' E 010°18'0 0.0
2018-Aug-10 12:28N 43°33' E 010°18'0 0.0
2018-Aug-10 11:58N 43°33' E 010°18'0 0.0
2018-Aug-10 11:28N 43°33' E 010°18'0 0.0
2018-Aug-10 10:58N 43°33' E 010°18'0 0.0
2018-Aug-10 10:28N 43°33' E 010°18'0 0.0
2018-Aug-10 09:55N 43°33' E 010°18'0 0.0
2018-Aug-10 09:28N 43°33' E 010°18'0 0.0
2018-Aug-10 08:58N 43°33' E 010°18'0 0.0
2018-Aug-10 08:25N 43°33' E 010°18'0 0.0
2018-Aug-10 07:58N 43°33' E 010°18'0 0.0
2018-Aug-10 07:28N 43°33' E 010°18'0 0.0
2018-Aug-10 06:58N 43°33' E 010°18'0 0.0
2018-Aug-10 06:28N 43°33' E 010°18'0 0.0
2018-Aug-10 05:58N 43°33' E 010°18'0 0.4
2018-Aug-10 05:30N 43°33' E 010°18'2 3.7
2018-Aug-10 05:00N 43°32' E 010°16'611.6
2018-Aug-10 04:30N 43°27' E 010°12'510.9
2018-Aug-10 04:01N 43°21' E 010°11'612.5
2018-Aug-10 03:31N 43°15' E 010°09'612.8
2018-Aug-10 03:01N 43°09' E 010°07'612.7
2018-Aug-10 02:30N 43°03' E 010°05'812.6
2018-Aug-10 01:52N 42°55' E 010°03'612.6
2018-Aug-10 01:22N 42°49' E 010°01'411.6
2018-Aug-10 00:59N 42°44' E 010°02'712.7
2018-Aug-10 00:26N 42°39' E 010°09'812.6
2018-Aug-09 23:49N 42°33' E 010°16'812.9
2018-Aug-09 23:12N 42°27' E 010°23'1413.0
2018-Aug-09 22:05N 42°16' E 010°35'313.3
2018-Aug-09 21:50N 42°14' E 010°38'2113.0
2018-Aug-09 20:13N 42°01' E 011°01'313.1
2018-Aug-09 19:59N 42°00' E 011°05'613.4
2018-Aug-09 19:31N 42°02' E 011°14'1113.4
2018-Aug-09 18:41N 42°04' E 011°28'712.6
2018-Aug-09 18:09N 42°05' E 011°37'3 0.3
2018-Aug-09 04:31N 42°03' E 011°41'010.4
2018-Aug-09 04:28N 42°03' E 011°41'12313.4
2018-Aug-08 19:19N 40°39' E 013°41'515.4
2018-Aug-08 19:00N 40°38' E 013°47'915.6
2018-Aug-08 18:25N 40°37' E 013°59'615.9
2018-Aug-08 18:00N 40°41' E 014°06'815.9
2018-Aug-08 17:31N 40°46' E 014°14'4 8.5
2018-Aug-08 17:00N 40°50' E 014°16'0 0.1
2018-Aug-08 16:28N 40°50' E 014°16'0 0.0
2018-Aug-08 15:58N 40°50' E 014°16'0 0.0
2018-Aug-08 15:30N 40°50' E 014°16'0 0.0
2018-Aug-08 15:00N 40°50' E 014°16'0 0.0
2018-Aug-08 14:30N 40°50' E 014°16'0 0.0
2018-Aug-08 14:00N 40°50' E 014°16'0 0.0
2018-Aug-08 13:27N 40°50' E 014°16'0 0.0
2018-Aug-08 12:57N 40°50' E 014°16'0 0.0
2018-Aug-08 12:27N 40°50' E 014°16'0 0.0
2018-Aug-08 12:00N 40°50' E 014°16'0 0.0
2018-Aug-08 11:30N 40°50' E 014°16'0 0.0
2018-Aug-08 10:57N 40°50' E 014°16'0 0.0
2018-Aug-08 10:30N 40°50' E 014°16'0 0.0
2018-Aug-08 10:00N 40°50' E 014°16'0 0.0
2018-Aug-08 09:30N 40°50' E 014°16'0 0.0
2018-Aug-08 09:00N 40°50' E 014°16'0 0.0
2018-Aug-08 08:30N 40°50' E 014°16'0 0.0
2018-Aug-08 08:00N 40°50' E 014°16'0 0.0
2018-Aug-08 07:30N 40°50' E 014°16'0 0.0
2018-Aug-08 07:00N 40°50' E 014°16'0 0.0
2018-Aug-08 06:30N 40°50' E 014°16'1 2.2
2018-Aug-08 06:00N 40°50' E 014°17'612.1
2018-Aug-08 05:31N 40°45' E 014°12'612.2
2018-Aug-08 05:01N 40°41' E 014°06'611.9
2018-Aug-08 04:30N 40°38' E 013°59'612.4
2018-Aug-08 04:01N 40°36' E 013°52'612.4
2018-Aug-08 03:31N 40°34' E 013°44'612.6
2018-Aug-08 03:01N 40°32' E 013°36'3312.5
2018-Aug-08 00:22N 40°39' E 012°53'512.6
2018-Aug-07 23:59N 40°40' E 012°47'612.5
2018-Aug-07 23:30N 40°41' E 012°40'812.5
2018-Aug-07 22:53N 40°43' E 012°30'512.9
2018-Aug-07 22:30N 40°45' E 012°24'1814.3
2018-Aug-07 21:14N 40°49' E 012°00'416.2
2018-Aug-07 21:00N 40°50' E 011°56'1316.3
2018-Aug-07 20:12N 40°54' E 011°39'416.3
2018-Aug-07 19:57N 40°55' E 011°34'716.1
2018-Aug-07 19:30N 40°57' E 011°25'4915.9
2018-Aug-07 16:27N 41°09' E 010°22'1216.1
2018-Aug-07 15:44N 41°12' E 010°07'515.9
2018-Aug-07 15:25N 41°14' E 010°01'1215.7
2018-Aug-07 14:39N 41°17' E 009°45'215.5
2018-Aug-07 14:30N 41°17' E 009°43'815.3
2018-Aug-07 14:00N 41°20' E 009°33'815.1
2018-Aug-07 13:30N 41°22' E 009°23'7215.4
2018-Aug-07 08:50N 41°16' E 007°48'716.3
2018-Aug-07 08:26N 41°16' E 007°39'716.3
2018-Aug-07 08:00N 41°16' E 007°30'2116.2
2018-Aug-07 06:42N 41°16' E 007°02'316.4
2018-Aug-07 06:30N 41°16' E 006°57'816.2
2018-Aug-07 06:00N 41°16' E 006°47'3616.2
2018-Aug-07 03:47N 41°16' E 005°59'516.1
2018-Aug-07 03:27N 41°16' E 005°52'10015.9
2018-Aug-06 21:10N 41°16' E 003°39'916.1
2018-Aug-06 20:38N 41°16' E 003°27'5315.9
2018-Aug-06 17:18N 41°15' E 002°16'414.0
2018-Aug-06 17:00N 41°16' E 002°11'5 9.8
2018-Aug-06 16:30N 41°21' E 002°10'1 2.5
2018-Aug-06 16:00N 41°22' E 002°11'0 0.0
2018-Aug-06 15:27N 41°22' E 002°11'0 0.0
2018-Aug-06 14:57N 41°22' E 002°11'0 0.0
2018-Aug-06 14:27N 41°22' E 002°11'0 0.0
2018-Aug-06 14:00N 41°22' E 002°11'0 0.0
2018-Aug-06 13:30N 41°22' E 002°11'0 0.0
2018-Aug-06 13:00N 41°22' E 002°11'0 0.0
2018-Aug-06 12:30N 41°22' E 002°11'0 0.0
2018-Aug-06 12:00N 41°22' E 002°11'0 0.0
2018-Aug-06 11:30N 41°22' E 002°11'0 0.0
2018-Aug-06 11:00N 41°22' E 002°11'0 0.0
2018-Aug-06 10:30N 41°22' E 002°11'0 0.0
2018-Aug-06 09:57N 41°22' E 002°11'0 0.0
2018-Aug-06 09:30N 41°22' E 002°11'0 0.0
2018-Aug-06 09:00N 41°22' E 002°11'0 0.0
2018-Aug-06 08:30N 41°22' E 002°11'0 0.0
2018-Aug-06 08:00N 41°22' E 002°11'0 0.0
2018-Aug-06 07:30N 41°22' E 002°11'0 0.0
2018-Aug-06 06:57N 41°22' E 002°11'0 0.0
2018-Aug-06 06:30N 41°22' E 002°11'0 0.0
2018-Aug-06 06:00N 41°22' E 002°11'0 0.3
2018-Aug-06 05:30N 41°22' E 002°11'3 6.6
2018-Aug-06 05:00N 41°18' E 002°10'4 9.0
2018-Aug-06 04:30N 41°16' E 002°16'5 9.6
2018-Aug-06 03:58N 41°16' E 002°23'511.5
2018-Aug-06 03:30N 41°16' E 002°30'611.9
2018-Aug-06 03:00N 41°19' E 002°37'611.8
2018-Aug-06 02:30N 41°21' E 002°44'611.8
2018-Aug-06 02:00N 41°24' E 002°51'612.4
2018-Aug-06 01:31N 41°26' E 002°59'713.4
2018-Aug-06 01:00N 41°30' E 003°06'713.8
2018-Aug-06 00:28N 41°34' E 003°14'714.0
2018-Aug-06 00:00N 41°39' E 003°21'714.1
2018-Aug-05 23:29N 41°43' E 003°28'713.9
2018-Aug-05 23:00N 41°48' E 003°35'4013.8
2018-Aug-05 20:07N 42°27' E 003°43'313.9
2018-Aug-05 19:53N 42°30' E 003°43'2113.5
2018-Aug-05 18:20N 42°51' E 003°47'412.9
2018-Aug-05 18:00N 42°55' E 003°47'1912.7
2018-Aug-05 16:28N 43°15' E 003°48'612.6
2018-Aug-05 16:00N 43°20' E 003°46'4 8.3
2018-Aug-05 15:30N 43°24' E 003°43'0 0.6
2018-Aug-05 14:58N 43°24' E 003°43'0 0.0
2018-Aug-05 14:28N 43°24' E 003°43'0 0.0
2018-Aug-05 13:28N 43°24' E 003°43'0 0.0
2018-Aug-05 12:58N 43°24' E 003°43'  
Track history (hours):
 
Tides and Currents Weather Stations Pressure Air Temp Water Temp Dewpoint Dewpoint Depression Visibility Wind Speed Wind Dir Waves Ship Positions

Sovereign

Last reported at 2018-Aug-15 12:30 UTC. Time now 2018-Aug-15 12:37 UTC.
Position N 40°50' E 014°16'.

Length 269 m; draft 7.8 m.

Type: Passenger vessel. MMSI: 249539000.

Date/timePositionNaut miles runAvg speedWind from/ knotsBaromVisibWave heightAir tempDewpointWater temp
2018-Aug-15 12:30N 40°50' E 014°16'0 0.0
2018-Aug-15 12:00N 40°50' E 014°16'0 0.0
2018-Aug-15 11:30N 40°50' E 014°16'0 0.0
2018-Aug-15 11:00N 40°50' E 014°16'0 0.0
2018-Aug-15 10:30N 40°50' E 014°16'0 0.0
2018-Aug-15 10:00N 40°50' E 014°16'0 0.0
2018-Aug-15 09:30N 40°50' E 014°16'0 0.0
2018-Aug-15 09:00N 40°50' E 014°16'0 0.0
2018-Aug-15 08:24N 40°50' E 014°16'0 0.0
2018-Aug-15 08:00N 40°50' E 014°16'0 0.0
2018-Aug-15 07:30N 40°50' E 014°16'0 0.0
2018-Aug-15 07:00N 40°50' E 014°16'0 0.5
2018-Aug-15 06:30N 40°50' E 014°16'1 2.9
2018-Aug-15 06:00N 40°49' E 014°17'510.3
2018-Aug-15 05:31N 40°45' E 014°13'612.2
2018-Aug-15 05:00N 40°41' E 014°06'612.1
2018-Aug-15 04:31N 40°38' E 014°00'612.6
2018-Aug-15 04:00N 40°36' E 013°52'612.9
2018-Aug-15 03:31N 40°34' E 013°44'612.8
2018-Aug-15 03:00N 40°32' E 013°36'612.4
2018-Aug-15 02:30N 40°32' E 013°28'712.9
2018-Aug-15 01:59N 40°33' E 013°19'913.0
2018-Aug-15 01:16N 40°36' E 013°07'49515.3
2018-Aug-13 16:56N 41°16' E 002°14'510.7
2018-Aug-13 16:30N 41°19' E 002°10'2 4.5
2018-Aug-13 16:00N 41°22' E 002°11'0 0.0
2018-Aug-13 15:30N 41°22' E 002°11'0 0.0
2018-Aug-13 15:00N 41°22' E 002°11'0 0.0
2018-Aug-13 14:30N 41°22' E 002°11'0 0.0
2018-Aug-13 14:00N 41°22' E 002°11'0 0.0
2018-Aug-13 13:30N 41°22' E 002°11'0 0.0
2018-Aug-13 13:00N 41°22' E 002°11'0 0.0
2018-Aug-13 12:30N 41°22' E 002°11'0 0.0
2018-Aug-13 12:00N 41°22' E 002°11'0 0.0
2018-Aug-13 11:30N 41°22' E 002°11'0 0.0
2018-Aug-13 11:00N 41°22' E 002°11'0 0.0
2018-Aug-13 10:30N 41°22' E 002°11'0 0.0
2018-Aug-13 10:00N 41°22' E 002°11'0 0.0
2018-Aug-13 09:30N 41°22' E 002°11'0 0.0
2018-Aug-13 08:54N 41°22' E 002°11'0 0.0
2018-Aug-13 08:30N 41°22' E 002°11'0 0.0
2018-Aug-13 08:00N 41°22' E 002°11'0 0.0
2018-Aug-13 07:30N 41°22' E 002°11'0 0.0
2018-Aug-13 07:00N 41°22' E 002°11'0 0.0
2018-Aug-13 06:30N 41°22' E 002°11'0 0.0
2018-Aug-13 06:00N 41°22' E 002°11'0 0.4
2018-Aug-13 05:30N 41°22' E 002°11'3 5.7
2018-Aug-13 05:00N 41°19' E 002°10'4 8.7
2018-Aug-13 04:30N 41°16' E 002°15'5 9.8
2018-Aug-13 04:00N 41°16' E 002°21'13511.7
2018-Aug-12 16:26N 43°15' E 003°48'715.2
2018-Aug-12 16:00N 43°22' E 003°46'3 6.6
2018-Aug-12 15:30N 43°24' E 003°43'0 0.0
2018-Aug-12 06:33N 43°24' E 003°43'0 0.0
2018-Aug-12 06:21N 43°24' E 003°43'0 0.0
2018-Aug-12 06:00N 43°24' E 003°43'0 0.0
2018-Aug-12 05:30N 43°24' E 003°43'0 0.0
2018-Aug-12 04:57N 43°24' E 003°43'0 0.0
2018-Aug-12 04:30N 43°24' E 003°43'2 4.9
2018-Aug-12 04:00N 43°23' E 003°46'712.1
2018-Aug-12 03:25N 43°18' E 003°52'511.7
2018-Aug-12 03:00N 43°15' E 003°57'612.7
2018-Aug-12 02:30N 43°12' E 004°05'3213.9
2018-Aug-12 00:12N 43°03' E 004°47'315.4
2018-Aug-11 23:59N 43°02' E 004°52'715.1
2018-Aug-11 23:31N 43°00' E 005°01'815.0
2018-Aug-11 22:59N 42°58' E 005°11'815.1
2018-Aug-11 22:29N 42°56' E 005°21'2515.1
2018-Aug-11 20:49N 42°54' E 005°56'515.1
2018-Aug-11 20:30N 42°54' E 006°02'715.2
2018-Aug-11 20:00N 42°54' E 006°12'815.1
2018-Aug-11 19:30N 42°54' E 006°23'815.2
2018-Aug-11 19:00N 42°54' E 006°33'815.3
2018-Aug-11 18:30N 42°54' E 006°44'914.7
2018-Aug-11 17:54N 43°00' E 006°53'615.9
2018-Aug-11 17:30N 43°05' E 006°58'816.0
2018-Aug-11 17:00N 43°11' E 007°05'815.7
2018-Aug-11 16:30N 43°18' E 007°11'816.1
2018-Aug-11 16:00N 43°26' E 007°13'816.2
2018-Aug-11 15:30N 43°34' E 007°16'714.2
2018-Aug-11 15:00N 43°41' E 007°19'1 1.6
2018-Aug-11 14:26N 43°41' E 007°19'0 0.0
2018-Aug-11 13:56N 43°41' E 007°19'0 0.0
2018-Aug-11 13:26N 43°41' E 007°19'0 0.0
2018-Aug-11 12:56N 43°41' E 007°19'0 0.0
2018-Aug-11 11:26N 43°41' E 007°19'0 0.0
2018-Aug-11 05:33N 43°41' E 007°19'0 2.7
2018-Aug-11 05:30N 43°41' E 007°19'3 6.2
2018-Aug-11 04:57N 43°40' E 007°23'3510.3
2018-Aug-11 01:37N 43°38' E 008°11'1 9.9
2018-Aug-11 01:30N 43°38' E 008°12'6 9.8
2018-Aug-11 00:55N 43°38' E 008°20'5 9.9
2018-Aug-11 00:24N 43°37' E 008°27'512.3
2018-Aug-11 00:00N 43°37' E 008°34'612.8
2018-Aug-10 23:30N 43°37' E 008°43'612.6
2018-Aug-10 23:00N 43°36' E 008°52'612.7
2018-Aug-10 22:30N 43°36' E 009°00'612.8
2018-Aug-10 22:00N 43°36' E 009°09'613.0
2018-Aug-10 21:30N 43°36' E 009°18'612.9
2018-Aug-10 21:00N 43°35' E 009°27'612.8
2018-Aug-10 20:30N 43°35' E 009°36'612.6
2018-Aug-10 20:00N 43°34' E 009°44'612.4
2018-Aug-10 19:30N 43°32' E 009°53'612.6
2018-Aug-10 19:00N 43°31' E 010°01'612.3
2018-Aug-10 18:30N 43°31' E 010°10'510.7
2018-Aug-10 18:00N 43°32' E 010°17'1 2.6
2018-Aug-10 17:28N 43°33' E 010°18'0 0.0
2018-Aug-10 16:58N 43°33' E 010°18'0 0.0
2018-Aug-10 16:25N 43°33' E 010°18'0 0.0
2018-Aug-10 15:58N 43°33' E 010°18'0 0.0
2018-Aug-10 15:28N 43°33' E 010°18'0 0.0
2018-Aug-10 14:58N 43°33' E 010°18'0 0.0
2018-Aug-10 14:28N 43°33' E 010°18'0 0.0
2018-Aug-10 13:58N 43°33' E 010°18'0 0.0
2018-Aug-10 13:25N 43°33' E 010°18'0 0.0
2018-Aug-10 12:58N 43°33' E 010°18'0 0.0
2018-Aug-10 12:28N 43°33' E 010°18'0 0.0
2018-Aug-10 11:58N 43°33' E 010°18'0 0.0
2018-Aug-10 11:28N 43°33' E 010°18'0 0.0
2018-Aug-10 10:58N 43°33' E 010°18'0 0.0
2018-Aug-10 10:28N 43°33' E 010°18'0 0.0
2018-Aug-10 09:55N 43°33' E 010°18'0 0.0
2018-Aug-10 09:28N 43°33' E 010°18'0 0.0
2018-Aug-10 08:58N 43°33' E 010°18'0 0.0
2018-Aug-10 08:25N 43°33' E 010°18'0 0.0
2018-Aug-10 07:58N 43°33' E 010°18'0 0.0
2018-Aug-10 07:28N 43°33' E 010°18'0 0.0
2018-Aug-10 06:58N 43°33' E 010°18'0 0.0
2018-Aug-10 06:28N 43°33' E 010°18'0 0.0
2018-Aug-10 05:58N 43°33' E 010°18'0 0.4
2018-Aug-10 05:30N 43°33' E 010°18'2 3.7
2018-Aug-10 05:00N 43°32' E 010°16'611.6
2018-Aug-10 04:30N 43°27' E 010°12'510.9
2018-Aug-10 04:01N 43°21' E 010°11'612.5
2018-Aug-10 03:31N 43°15' E 010°09'612.8
2018-Aug-10 03:01N 43°09' E 010°07'612.7
2018-Aug-10 02:30N 43°03' E 010°05'812.6
2018-Aug-10 01:52N 42°55' E 010°03'612.6
2018-Aug-10 01:22N 42°49' E 010°01'411.6
2018-Aug-10 00:59N 42°44' E 010°02'712.7
2018-Aug-10 00:26N 42°39' E 010°09'812.6
2018-Aug-09 23:49N 42°33' E 010°16'812.9
2018-Aug-09 23:12N 42°27' E 010°23'1413.0
2018-Aug-09 22:05N 42°16' E 010°35'313.3
2018-Aug-09 21:50N 42°14' E 010°38'2113.0
2018-Aug-09 20:13N 42°01' E 011°01'313.1
2018-Aug-09 19:59N 42°00' E 011°05'613.4
2018-Aug-09 19:31N 42°02' E 011°14'1113.4
2018-Aug-09 18:41N 42°04' E 011°28'712.6
2018-Aug-09 18:09N 42°05' E 011°37'3 0.3
2018-Aug-09 04:31N 42°03' E 011°41'010.4
2018-Aug-09 04:28N 42°03' E 011°41'12313.4
2018-Aug-08 19:19N 40°39' E 013°41'515.4
2018-Aug-08 19:00N 40°38' E 013°47'915.6
2018-Aug-08 18:25N 40°37' E 013°59'615.9
2018-Aug-08 18:00N 40°41' E 014°06'815.9
2018-Aug-08 17:31N 40°46' E 014°14'4 8.5
2018-Aug-08 17:00N 40°50' E 014°16'0 0.1
2018-Aug-08 16:28N 40°50' E 014°16'0 0.0
2018-Aug-08 15:58N 40°50' E 014°16'0 0.0
2018-Aug-08 15:30N 40°50' E 014°16'0 0.0
2018-Aug-08 15:00N 40°50' E 014°16'0 0.0
2018-Aug-08 14:30N 40°50' E 014°16'0 0.0
2018-Aug-08 14:00N 40°50' E 014°16'0 0.0
2018-Aug-08 13:27N 40°50' E 014°16'0 0.0
2018-Aug-08 12:57N 40°50' E 014°16'0 0.0
2018-Aug-08 12:27N 40°50' E 014°16'0 0.0
2018-Aug-08 12:00N 40°50' E 014°16'0 0.0
2018-Aug-08 11:30N 40°50' E 014°16'0 0.0
2018-Aug-08 10:57N 40°50' E 014°16'0 0.0
2018-Aug-08 10:30N 40°50' E 014°16'0 0.0
2018-Aug-08 10:00N 40°50' E 014°16'0 0.0
2018-Aug-08 09:30N 40°50' E 014°16'0 0.0
2018-Aug-08 09:00N 40°50' E 014°16'0 0.0
2018-Aug-08 08:30N 40°50' E 014°16'0 0.0
2018-Aug-08 08:00N 40°50' E 014°16'0 0.0
2018-Aug-08 07:30N 40°50' E 014°16'0 0.0
2018-Aug-08 07:00N 40°50' E 014°16'0 0.0
2018-Aug-08 06:30N 40°50' E 014°16'1 2.2
2018-Aug-08 06:00N 40°50' E 014°17'612.1
2018-Aug-08 05:31N 40°45' E 014°12'612.2
2018-Aug-08 05:01N 40°41' E 014°06'611.9
2018-Aug-08 04:30N 40°38' E 013°59'612.4
2018-Aug-08 04:01N 40°36' E 013°52'612.4
2018-Aug-08 03:31N 40°34' E 013°44'612.6
2018-Aug-08 03:01N 40°32' E 013°36'3312.5
2018-Aug-08 00:22N 40°39' E 012°53'512.6
2018-Aug-07 23:59N 40°40' E 012°47'612.5
2018-Aug-07 23:30N 40°41' E 012°40'812.5
2018-Aug-07 22:53N 40°43' E 012°30'512.9
2018-Aug-07 22:30N 40°45' E 012°24'1814.3
2018-Aug-07 21:14N 40°49' E 012°00'416.2
2018-Aug-07 21:00N 40°50' E 011°56'1316.3
2018-Aug-07 20:12N 40°54' E 011°39'416.3
2018-Aug-07 19:57N 40°55' E 011°34'716.1
2018-Aug-07 19:30N 40°57' E 011°25'4915.9
2018-Aug-07 16:27N 41°09' E 010°22'1216.1
2018-Aug-07 15:44N 41°12' E 010°07'515.9
2018-Aug-07 15:25N 41°14' E 010°01'1215.7
2018-Aug-07 14:39N 41°17' E 009°45'215.5
2018-Aug-07 14:30N 41°17' E 009°43'815.3
2018-Aug-07 14:00N 41°20' E 009°33'815.1
2018-Aug-07 13:30N 41°22' E 009°23'7215.4
2018-Aug-07 08:50N 41°16' E 007°48'716.3
2018-Aug-07 08:26N 41°16' E 007°39'716.3
2018-Aug-07 08:00N 41°16' E 007°30'2116.2
2018-Aug-07 06:42N 41°16' E 007°02'316.4
2018-Aug-07 06:30N 41°16' E 006°57'816.2
2018-Aug-07 06:00N 41°16' E 006°47'3616.2
2018-Aug-07 03:47N 41°16' E 005°59'516.1
2018-Aug-07 03:27N 41°16' E 005°52'10015.9
2018-Aug-06 21:10N 41°16' E 003°39'916.1
2018-Aug-06 20:38N 41°16' E 003°27'5315.9
2018-Aug-06 17:18N 41°15' E 002°16'414.0
2018-Aug-06 17:00N 41°16' E 002°11'5 9.8
2018-Aug-06 16:30N 41°21' E 002°10'1 2.5
2018-Aug-06 16:00N 41°22' E 002°11'0 0.0
2018-Aug-06 15:27N 41°22' E 002°11'0 0.0
2018-Aug-06 14:57N 41°22' E 002°11'0 0.0
2018-Aug-06 14:27N 41°22' E 002°11'0 0.0
2018-Aug-06 14:00N 41°22' E 002°11'0 0.0
2018-Aug-06 13:30N 41°22' E 002°11'0 0.0
2018-Aug-06 13:00N 41°22' E 002°11'0 0.0
2018-Aug-06 12:30N 41°22' E 002°11'0 0.0
2018-Aug-06 12:00N 41°22' E 002°11'0 0.0
2018-Aug-06 11:30N 41°22' E 002°11'0 0.0
2018-Aug-06 11:00N 41°22' E 002°11'0 0.0
2018-Aug-06 10:30N 41°22' E 002°11'0 0.0
2018-Aug-06 09:57N 41°22' E 002°11'0 0.0
2018-Aug-06 09:30N 41°22' E 002°11'0 0.0
2018-Aug-06 09:00N 41°22' E 002°11'0 0.0
2018-Aug-06 08:30N 41°22' E 002°11'0 0.0
2018-Aug-06 08:00N 41°22' E 002°11'0 0.0
2018-Aug-06 07:30N 41°22' E 002°11'0 0.0
2018-Aug-06 06:57N 41°22' E 002°11'0 0.0
2018-Aug-06 06:30N 41°22' E 002°11'0 0.0
2018-Aug-06 06:00N 41°22' E 002°11'0 0.3
2018-Aug-06 05:30N 41°22' E 002°11'3 6.6
2018-Aug-06 05:00N 41°18' E 002°10'4 9.0
2018-Aug-06 04:30N 41°16' E 002°16'5 9.6
2018-Aug-06 03:58N 41°16' E 002°23'511.5
2018-Aug-06 03:30N 41°16' E 002°30'611.9
2018-Aug-06 03:00N 41°19' E 002°37'611.8
2018-Aug-06 02:30N 41°21' E 002°44'611.8
2018-Aug-06 02:00N 41°24' E 002°51'612.4
2018-Aug-06 01:31N 41°26' E 002°59'713.4
2018-Aug-06 01:00N 41°30' E 003°06'713.8
2018-Aug-06 00:28N 41°34' E 003°14'714.0
2018-Aug-06 00:00N 41°39' E 003°21'714.1
2018-Aug-05 23:29N 41°43' E 003°28'713.9
2018-Aug-05 23:00N 41°48' E 003°35'4013.8
2018-Aug-05 20:07N 42°27' E 003°43'313.9
2018-Aug-05 19:53N 42°30' E 003°43'2113.5
2018-Aug-05 18:20N 42°51' E 003°47'412.9
2018-Aug-05 18:00N 42°55' E 003°47'1912.7
2018-Aug-05 16:28N 43°15' E 003°48'612.6
2018-Aug-05 16:00N 43°20' E 003°46'4 8.3
2018-Aug-05 15:30N 43°24' E 003°43'0 0.6
2018-Aug-05 14:58N 43°24' E 003°43'0 0.0
2018-Aug-05 14:28N 43°24' E 003°43'0 0.0
2018-Aug-05 13:28N 43°24' E 003°43'0 0.0
2018-Aug-05 12:58N 43°24' E 003°43'  

Dump ship's entire track history